Portada
METAR-TAF:

METAR-TAF

Aeroports :

Chumphon, Tailàndia

latitud: 10-42-40N, longitud: 099-21-42E, altitud: 5 m

Observació

L'informe es va fer fa 17 minuts, a les 10:00 UTC
Vent 6 kt del Est, variant entre Nord-Est i Est/Sud-Est
Temperatura 31°C
Humitat 71%
Pressió 1009 hPa
Visibilitat 10 km o més
Núvols disperses a una alçada de 2000 ft
Núvols disperses a una alçada de 10000 ft

METAR: VTSE 151000Z 09006KT 050V120 9999 SCT020 SCT100 31/25 Q1009 NOSIG

Hora: 17:17 (10:17 UTC)

Pronòstic

L'informe es va fer fa 5 hores i 17 minuts, a les 05:00 UTC
Pronòstic vàlid del 15 a les 06 UTC al 16 a les 06 UTC
Vent 8 kt del Sud-Est
Visibilitat 10 km o més
Escasses núvols a una alçada de 2000 ft

TAF: VTSE 150500Z 1506/1606 14008KT 9999 FEW020

Observacions i pronòstics meteorològics de més de 4000 aeroports (METAR i TAF).

Les estacions disponibles són els punts grocs i vermells al mapa.

Posi el ratolí al punt desitjat per veure el nom de l'estació.

Feu clic per veure les observacions i els pronòstics meteorològics.

Per canviar el mapa: feu clic els botons verds amb una creu de color negre per apropar; al botó verd amb un guió per allunyar la imatge; o en les fletxes verdes per a mapes adjacents.


METAR-TAF: